Time;durP1;ratioP1;P1;durP2;ratioP2;P2;SDS_P1;SDS_P2;PMS_P1;PMS_P2;Temp;Humidity;BMP_temperature;BMP_pressure;BME280_temperature;BME280_humidity;BME280_pressure;Samples;Min_cycle;Max_cycle;Signal;HPM_P1;HPM_P2
2021/09/03 00:01:39;;;;;;;10.75;3.90;;;;;;;18.62;48.23;100926.16;5032730;28;20116;-66
2021/09/03 00:04:05;;;;;;;7.82;3.80;;;;;;;18.92;49.30;100962.31;5014948;28;20029;-66
2021/09/03 00:06:30;;;;;;;7.82;3.28;;;;;;;18.59;49.71;100967.13;5014969;28;20034;-66
2021/09/03 00:08:56;;;;;;;7.88;4.10;;;;;;;18.50;49.56;100972.25;5032091;28;20093;-66
2021/09/03 00:11:21;;;;;;;6.70;3.55;;;;;;;18.65;49.94;100962.84;5032080;28;20403;-66
2021/09/03 00:13:47;;;;;;;7.40;3.72;;;;;;;18.82;49.34;100963.03;5031985;28;20026;-66
2021/09/03 00:16:12;;;;;;;15.82;3.92;;;;;;;18.79;49.73;100961.28;5032288;28;20399;-67
2021/09/03 00:18:38;;;;;;;9.80;4.10;;;;;;;18.72;47.66;100960.31;5032055;28;20037;-66
2021/09/03 00:21:03;;;;;;;9.68;3.67;;;;;;;18.70;49.39;100963.75;5032103;28;20025;-66
2021/09/03 00:23:29;;;;;;;10.73;3.90;;;;;;;18.68;50.15;100973.31;5032245;28;20025;-66
2021/09/03 00:25:54;;;;;;;10.30;3.78;;;;;;;18.41;49.90;100940.78;5032053;28;20025;-66
2021/09/03 00:28:20;;;;;;;7.90;3.45;;;;;;;18.63;49.85;100972.38;5032081;28;20494;-67
2021/09/03 00:30:45;;;;;;;9.48;3.53;;;;;;;18.77;50.10;100983.91;5031911;28;20447;-65
2021/09/03 00:33:11;;;;;;;7.15;3.50;;;;;;;18.70;50.17;100982.06;5031857;28;20029;-66
2021/09/03 00:35:36;;;;;;;9.35;3.42;;;;;;;18.42;50.12;100977.38;5031982;28;20026;-66
2021/09/03 00:38:02;;;;;;;8.20;3.80;;;;;;;18.37;50.53;100981.69;5031917;28;20464;-66
2021/09/03 00:40:27;;;;;;;6.93;3.60;;;;;;;18.46;50.50;100977.44;5031663;28;20025;-66
2021/09/03 00:42:53;;;;;;;9.45;3.63;;;;;;;18.31;50.85;100973.75;5031516;28;20029;-66
2021/09/03 00:45:18;;;;;;;8.23;3.80;;;;;;;18.18;51.16;100967.50;5031486;28;20029;-66
2021/09/03 00:47:44;;;;;;;11.07;4.07;;;;;;;18.23;51.53;100976.28;5031863;28;20061;-66
2021/09/03 00:50:10;;;;;;;9.93;3.90;;;;;;;18.24;51.21;100975.41;5031794;28;20021;-66
2021/09/03 00:52:36;;;;;;;10.93;4.03;;;;;;;18.17;51.76;100981.41;5031566;28;20033;-66
2021/09/03 00:55:03;;;;;;;8.35;3.65;;;;;;;17.89;52.57;100978.34;5031734;28;20022;-66
2021/09/03 00:57:28;;;;;;;8.95;4.03;;;;;;;17.69;53.36;100980.66;5031502;28;20026;-66
2021/09/03 00:59:55;;;;;;;8.25;3.95;;;;;;;17.52;53.13;100937.75;5031554;28;20026;-66
2021/09/03 01:02:21;;;;;;;7.25;4.05;;;;;;;17.85;53.66;100991.38;5031711;28;20082;-66
2021/09/03 01:04:48;;;;;;;6.85;3.42;;;;;;;17.68;53.26;100972.81;5030970;28;20111;-66
2021/09/03 01:07:13;;;;;;;10.65;3.90;;;;;;;17.75;53.33;100999.03;5031514;28;20083;-66
2021/09/03 01:09:39;;;;;;;6.97;3.45;;;;;;;17.68;53.31;100985.88;5031375;28;20483;-66
2021/09/03 01:12:05;;;;;;;5.90;3.58;;;;;;;17.53;53.48;100987.34;5031289;28;20029;-66
2021/09/03 01:14:30;;;;;;;7.05;3.63;;;;;;;17.42;53.83;100987.19;5031237;28;20491;-66
2021/09/03 01:16:56;;;;;;;5.85;3.63;;;;;;;17.40;53.83;100985.41;5031703;28;20139;-66
2021/09/03 01:19:21;;;;;;;9.02;3.58;;;;;;;17.15;53.92;100943.22;5031166;28;20021;-66
2021/09/03 01:21:51;;;;;;;7.43;3.65;;;;;;;17.51;53.22;100983.88;5031686;28;20456;-66
2021/09/03 01:24:17;;;;;;;;;;;;;;;17.71;52.32;100978.97;5031788;28;20458;-66
2021/09/03 01:26:43;;;;;;;9.13;3.70;;;;;;;17.59;52.76;100937.84;5031078;28;20074;-66
2021/09/03 01:29:08;;;;;;;10.10;3.70;;;;;;;17.56;53.58;100992.66;5031348;28;20515;-67
2021/09/03 01:31:34;;;;;;;7.53;3.80;;;;;;;17.46;53.97;100980.31;5031149;28;20122;-66
2021/09/03 01:33:59;;;;;;;7.10;4.32;;;;;;;17.60;54.06;100991.84;5031118;28;20032;-66
2021/09/03 01:36:29;;;;;;;5.43;3.83;;;;;;;17.62;54.04;100997.97;5030987;28;20049;-66
2021/09/03 01:38:54;;;;;;;;;;;;;;;17.66;54.27;100988.47;5031246;28;20108;-66
2021/09/03 01:41:21;;;;;;;8.65;4.22;;;;;;;17.49;54.15;100988.16;5030924;28;19982;-66
2021/09/03 01:43:46;;;;;;;7.18;3.67;;;;;;;17.37;54.28;100990.56;5031028;28;20022;-66
2021/09/03 01:46:12;;;;;;;10.32;3.65;;;;;;;17.38;54.28;100997.56;5030977;28;20033;-66
2021/09/03 01:48:37;;;;;;;10.65;3.60;;;;;;;17.51;53.57;101004.75;5031245;28;20029;-66
2021/09/03 01:51:03;;;;;;;7.05;4.13;;;;;;;17.51;53.70;101004.75;5031059;28;20027;-66
2021/09/03 01:53:28;;;;;;;9.85;3.47;;;;;;;17.39;54.29;101012.38;5031006;28;20022;-67
2021/09/03 01:55:54;;;;;;;5.97;3.67;;;;;;;17.34;54.24;101014.00;5030943;28;20026;-66
2021/09/03 01:58:19;;;;;;;8.82;3.55;;;;;;;17.28;53.35;101000.00;5031450;28;20025;-66
2021/09/03 02:00:45;;;;;;;11.05;3.85;;;;;;;17.43;52.96;101001.13;5030707;28;20026;-66
2021/09/03 02:03:10;;;;;;;8.13;3.53;;;;;;;17.51;52.37;101009.97;5031179;28;20032;-66
2021/09/03 02:05:36;;;;;;;7.68;3.35;;;;;;;17.61;52.24;101006.66;5031126;28;20388;-66
2021/09/03 02:08:01;;;;;;;8.13;3.60;;;;;;;17.65;52.09;101007.59;5030710;28;20057;-65
2021/09/03 02:10:27;;;;;;;6.10;3.20;;;;;;;17.75;51.95;100999.03;5030734;28;20026;-66
2021/09/03 02:12:52;;;;;;;10.68;3.50;;;;;;;17.87;53.00;100998.38;5030809;28;20419;-66
2021/09/03 02:15:18;;;;;;;9.70;3.95;;;;;;;17.74;53.37;100999.88;5014429;28;20083;-66
2021/09/03 02:17:44;;;;;;;7.57;3.40;;;;;;;17.54;53.58;100996.09;5034487;28;20113;-66
2021/09/03 02:20:09;;;;;;;8.05;4.00;;;;;;;17.50;54.97;100992.53;5034493;28;20030;-65
2021/09/03 02:22:35;;;;;;;6.90;3.85;;;;;;;17.34;56.80;100990.53;4983380;28;20037;-66
2021/09/03 02:25:00;;;;;;;25.52;5.20;;;;;;;17.32;57.22;100987.91;5034351;28;20018;-66
2021/09/03 02:27:26;;;;;;;33.55;5.47;;;;;;;17.27;58.11;100990.41;5034395;28;20068;-66
2021/09/03 02:29:51;;;;;;;19.23;5.07;;;;;;;17.08;58.61;100941.38;5034750;28;20076;-65
2021/09/03 02:32:19;;;;;;;13.73;4.53;;;;;;;17.45;60.72;100995.06;5034416;28;20029;-66
2021/09/03 02:34:45;;;;;;;12.30;4.55;;;;;;;17.55;62.30;100990.88;5034102;28;20030;-66
2021/09/03 02:37:11;;;;;;;9.50;4.03;;;;;;;17.66;62.42;100995.38;5033937;28;20064;-66
2021/09/03 02:39:36;;;;;;;8.45;3.80;;;;;;;17.67;61.77;101000.66;5033825;28;20037;-65
2021/09/03 02:42:02;;;;;;;8.55;3.67;;;;;;;17.67;61.87;100989.31;5033993;28;20137;-66
2021/09/03 02:44:27;;;;;;;7.10;3.85;;;;;;;17.81;61.85;101003.50;5034258;28;20025;-66
2021/09/03 02:46:53;;;;;;;9.95;4.10;;;;;;;17.85;61.85;101010.50;5034012;28;20033;-66
2021/09/03 02:49:18;;;;;;;7.45;3.95;;;;;;;17.50;62.39;100987.31;5034135;28;20025;-66
2021/09/03 02:51:43;;;;;;;35.53;5.88;;;;;;;17.57;61.89;101006.56;5015416;28;20047;-65
2021/09/03 02:54:09;;;;;;;7.65;4.28;;;;;;;17.52;62.61;101005.63;5033864;28;20022;-66
2021/09/03 02:56:37;;;;;;;11.23;4.18;;;;;;;17.33;62.89;101007.91;5034054;28;20446;-66
2021/09/03 02:59:03;;;;;;;8.55;4.30;;;;;;;17.08;63.46;100990.94;5033640;28;20030;-66
2021/09/03 03:01:28;;;;;;;11.35;4.32;;;;;;;16.93;63.94;101008.03;5033752;28;20040;-66
2021/09/03 03:03:54;;;;;;;11.02;4.43;;;;;;;17.11;63.79;101002.31;5033721;28;20026;-66
2021/09/03 03:06:19;;;;;;;9.00;4.50;;;;;;;17.21;63.17;100982.47;5033946;28;20517;-66
2021/09/03 03:08:45;;;;;;;9.60;3.90;;;;;;;17.28;62.69;100999.13;4998420;28;20061;-67
2021/09/03 03:11:10;;;;;;;16.45;4.38;;;;;;;17.50;61.86;100996.91;5033611;28;20068;-66
2021/09/03 03:13:37;;;;;;;11.30;4.75;;;;;;;17.47;62.62;100995.13;5033013;28;20033;-65
2021/09/03 03:16:03;;;;;;;11.60;4.25;;;;;;;17.34;61.85;100999.22;5033361;28;20021;-66
2021/09/03 03:18:29;;;;;;;20.70;5.47;;;;;;;17.38;61.41;100987.97;5033445;28;20027;-66
2021/09/03 03:20:54;;;;;;;17.75;5.28;;;;;;;17.57;60.83;100999.63;5033564;28;20025;-66
2021/09/03 03:23:21;;;;;;;17.27;5.18;;;;;;;17.74;60.38;100999.03;5033080;28;20030;-66
2021/09/03 03:25:47;;;;;;;14.35;4.90;;;;;;;17.41;61.61;101003.72;5033313;28;20019;-66
2021/09/03 03:28:13;;;;;;;10.30;4.30;;;;;;;16.47;63.37;101010.56;5032664;28;20087;-66
2021/09/03 03:30:38;;;;;;;9.90;4.00;;;;;;;16.48;63.65;101008.84;5033264;28;20061;-66
2021/09/03 03:33:04;;;;;;;7.60;4.57;;;;;;;16.36;63.86;100999.00;4998153;28;20087;-66
2021/09/03 03:35:30;;;;;;;9.10;4.10;;;;;;;16.47;63.84;101005.38;5032824;28;20498;-65
2021/09/03 03:37:55;;;;;;;9.80;4.35;;;;;;;16.46;63.72;101007.91;5032749;28;20479;-66
2021/09/03 03:40:21;;;;;;;8.65;4.28;;;;;;;16.52;63.57;101009.78;5032954;28;20029;-66
2021/09/03 03:42:46;;;;;;;9.25;4.10;;;;;;;16.43;63.93;101015.69;5033016;28;20025;-66
2021/09/03 03:45:12;;;;;;;13.35;4.75;;;;;;;16.40;64.21;101019.09;5032978;28;20025;-66
2021/09/03 03:47:38;;;;;;;10.82;3.97;;;;;;;16.39;64.23;101027.75;5032719;28;20453;-66
2021/09/03 03:50:05;;;;;;;10.95;4.45;;;;;;;16.49;63.69;101034.06;5032828;28;20033;-66
2021/09/03 03:52:31;;;;;;;13.27;5.20;;;;;;;16.32;63.19;101000.69;5042553;28;20048;-66
2021/09/03 03:54:56;;;;;;;20.48;5.00;;;;;;;16.22;63.79;100988.28;5040060;28;20026;-66
2021/09/03 03:57:22;;;;;;;18.55;4.43;;;;;;;16.52;62.79;101036.72;5045835;28;20040;-68
2021/09/03 03:59:47;;;;;;;11.73;5.00;;;;;;;16.45;62.63;101034.84;5047827;28;20029;-67
2021/09/03 04:02:13;;;;;;;19.20;4.78;;;;;;;16.52;62.39;101031.50;5045446;28;20399;-67
2021/09/03 04:04:38;;;;;;;17.02;5.53;;;;;;;16.70;61.66;101024.91;5051211;28;20411;-66
2021/09/03 04:07:04;;;;;;;13.80;4.47;;;;;;;16.74;61.41;101024.16;4997320;28;20099;-66
2021/09/03 04:09:29;;;;;;;10.13;4.18;;;;;;;16.68;61.95;101042.28;5032542;28;20110;-66
2021/09/03 04:11:55;;;;;;;12.30;4.43;;;;;;;16.80;62.23;101040.78;5014498;28;20092;-66
2021/09/03 04:14:21;;;;;;;15.07;4.20;;;;;;;16.97;61.45;101040.28;5033863;28;20045;-67
2021/09/03 04:16:47;;;;;;;21.33;4.75;;;;;;;17.19;61.17;101041.56;5051602;28;20418;-67
2021/09/03 04:19:13;;;;;;;14.38;4.65;;;;;;;17.38;60.94;101044.53;5049356;28;20649;-66
2021/09/03 04:21:40;;;;;;;13.25;4.65;;;;;;;17.04;61.91;101047.38;5038717;28;20025;-66
2021/09/03 04:24:06;;;;;;;15.00;4.82;;;;;;;16.95;61.75;101049.81;5052022;28;20059;-66
2021/09/03 04:26:32;;;;;;;10.43;4.35;;;;;;;17.01;61.82;101047.34;5052088;28;20108;-66
2021/09/03 04:28:58;;;;;;;12.50;4.80;;;;;;;17.10;61.70;101052.72;5051105;28;20542;-66
2021/09/03 04:31:23;;;;;;;12.52;4.50;;;;;;;17.08;62.25;101049.19;5052105;28;20029;-66
2021/09/03 04:33:49;;;;;;;14.13;4.47;;;;;;;17.14;61.94;101032.78;5033255;28;20049;-66
2021/09/03 04:36:14;;;;;;;15.63;4.90;;;;;;;17.29;61.46;101040.88;5051865;28;20388;-66
2021/09/03 04:38:40;;;;;;;15.30;5.15;;;;;;;17.29;61.28;101038.28;5050909;28;20095;-68
2021/09/03 04:41:05;;;;;;;16.67;5.00;;;;;;;17.22;61.49;101052.09;5052234;28;20078;-66
2021/09/03 04:43:31;;;;;;;9.10;4.32;;;;;;;17.25;60.82;101031.25;5051782;28;20029;-66
2021/09/03 04:45:56;;;;;;;17.98;5.07;;;;;;;17.42;60.50;101047.22;5051804;28;20028;-66
2021/09/03 04:48:22;;;;;;;13.25;4.43;;;;;;;17.50;60.69;101049.09;5052262;28;20032;-66
2021/09/03 04:50:47;;;;;;;14.70;5.13;;;;;;;17.05;62.35;101023.06;5067182;28;20025;-66
2021/09/03 04:53:13;;;;;;;11.75;5.45;;;;;;;16.70;64.04;101057.09;5052314;28;20107;-66
2021/09/03 04:55:38;;;;;;;8.98;4.85;;;;;;;16.37;64.46;101054.63;5051974;28;20029;-66
2021/09/03 04:58:04;;;;;;;17.02;5.95;;;;;;;16.17;65.13;101060.25;5051531;28;20029;-66
2021/09/03 05:00:30;;;;;;;15.15;5.70;;;;;;;16.18;65.25;101059.41;5051701;28;20408;-66
2021/09/03 05:02:55;;;;;;;18.40;5.15;;;;;;;15.94;65.80;101055.38;5051427;28;20104;-65
2021/09/03 05:05:21;;;;;;;12.68;4.63;;;;;;;15.59;66.30;101011.09;5051584;28;20112;-66
2021/09/03 05:07:46;;;;;;;11.07;4.65;;;;;;;16.15;65.51;101064.56;5051915;28;20150;-66
2021/09/03 05:10:12;;;;;;;13.13;4.78;;;;;;;16.44;64.67;101073.03;5051817;28;20150;-66
2021/09/03 05:12:39;;;;;;;12.23;4.50;;;;;;;16.54;64.59;101073.25;5051394;28;20040;-66
2021/09/03 05:15:11;;;;;;;13.95;4.30;;;;;;;16.64;63.67;101064.78;5051540;28;20029;-66
2021/09/03 05:17:38;;;;;;;8.57;4.00;;;;;;;16.77;63.53;101073.75;5051531;28;20032;-66
2021/09/03 05:20:05;;;;;;;17.00;4.20;;;;;;;17.00;63.61;101079.47;5051553;28;20083;-66
2021/09/03 05:22:32;;;;;;;11.63;4.40;;;;;;;17.10;63.91;101075.31;5051441;28;20025;-66
2021/09/03 05:24:58;;;;;;;14.10;4.20;;;;;;;17.22;63.49;101070.34;5051285;28;20028;-66
2021/09/03 05:27:24;;;;;;;10.93;4.50;;;;;;;17.43;62.29;101068.97;5051287;28;20025;-66
2021/09/03 05:29:49;;;;;;;15.60;5.25;;;;;;;17.55;63.42;101079.66;5051550;28;20107;-66
2021/09/03 05:32:14;;;;;;;15.77;4.82;;;;;;;17.62;62.06;101078.91;5051082;28;20021;-66
2021/09/03 05:34:40;;;;;;;20.40;5.20;;;;;;;17.74;62.53;101069.53;5051205;28;20033;-66
2021/09/03 05:37:05;;;;;;;13.40;5.40;;;;;;;17.87;61.99;101068.88;5051104;28;20398;-66
2021/09/03 05:39:31;;;;;;;23.45;6.38;;;;;;;17.81;61.61;101040.06;5051214;28;20032;-66
2021/09/03 05:41:56;;;;;;;17.83;5.47;;;;;;;18.03;60.69;101072.66;5051120;28;20028;-66
2021/09/03 05:44:22;;;;;;;25.15;5.38;;;;;;;18.01;60.06;101074.38;5049069;28;20518;-65
2021/09/03 05:46:47;;;;;;;18.67;5.63;;;;;;;17.81;60.20;101076.63;5051004;28;20479;-65
2021/09/03 05:49:13;;;;;;;27.45;6.35;;;;;;;17.75;61.44;101077.38;5051139;28;20036;-66
2021/09/03 05:51:38;;;;;;;26.90;6.13;;;;;;;17.89;61.39;101085.44;5055034;28;20108;-66
2021/09/03 05:54:08;;;;;;;24.40;5.95;;;;;;;17.70;61.15;101052.06;5055202;28;20372;-66
2021/09/03 05:56:34;;;;;;;18.85;5.18;;;;;;;17.99;62.24;101085.66;5055269;28;20029;-66
2021/09/03 05:59:01;;;;;;;20.65;5.90;;;;;;;18.14;59.48;101088.50;5054848;28;20037;-66
2021/09/03 06:01:26;;;;;;;18.30;5.57;;;;;;;18.30;58.27;101083.53;5053632;28;20082;-66
2021/09/03 06:03:52;;;;;;;24.75;5.93;;;;;;;18.40;59.31;101093.25;5054968;28;20033;-66
2021/09/03 06:06:17;;;;;;;23.92;5.72;;;;;;;18.39;60.15;101096.72;5055213;28;20086;-66
2021/09/03 06:08:43;;;;;;;20.60;6.18;;;;;;;18.28;57.96;101065.22;5055277;28;20080;-65
2021/09/03 06:11:08;;;;;;;18.60;5.30;;;;;;;18.45;58.96;101090.72;5054590;28;20036;-66
2021/09/03 06:13:34;;;;;;;18.02;5.47;;;;;;;18.37;58.84;101088.84;5054473;28;20033;-66
2021/09/03 06:16:00;;;;;;;16.35;5.13;;;;;;;18.20;58.61;101101.66;5054627;28;20112;-66
2021/09/03 06:18:25;;;;;;;20.55;5.88;;;;;;;18.15;57.34;101051.06;5054452;28;20111;-66
2021/09/03 06:20:51;;;;;;;20.48;5.20;;;;;;;18.62;57.43;101098.78;5054728;28;20070;-66
2021/09/03 06:23:16;;;;;;;14.82;4.78;;;;;;;18.72;56.42;101093.69;5054852;28;20028;-66
2021/09/03 06:25:42;;;;;;;16.48;5.25;;;;;;;18.68;57.38;101050.06;5054728;28;20025;-66
2021/09/03 06:28:07;;;;;;;23.70;5.80;;;;;;;18.92;55.78;101093.97;5054516;28;20029;-67
2021/09/03 06:30:33;;;;;;;19.55;5.72;;;;;;;19.21;54.14;101096.06;5054592;28;20029;-66
2021/09/03 06:32:58;;;;;;;23.63;5.35;;;;;;;19.27;54.20;101069.09;5054202;28;20479;-66
2021/09/03 06:35:24;;;;;;;15.13;4.82;;;;;;;19.56;51.50;101092.97;5054214;28;20028;-66
2021/09/03 06:37:50;;;;;;;7.85;2.72;;;;;;;19.83;46.33;101103.72;5054318;28;20094;-66
2021/09/03 06:40:15;;;;;;;7.35;2.55;;;;;;;20.08;42.52;101102.16;5053949;28;20025;-65
2021/09/03 06:42:41;;;;;;;8.30;2.67;;;;;;;20.41;41.36;101120.75;5054129;28;20118;-66
2021/09/03 06:45:09;;;;;;;4.40;2.20;;;;;;;20.58;41.29;101115.63;5053907;28;20410;-66
2021/09/03 06:47:37;;;;;;;6.85;2.60;;;;;;;20.74;43.68;101125.38;5053929;28;20043;-66
2021/09/03 06:50:05;;;;;;;4.23;2.50;;;;;;;20.79;40.90;101126.25;5054258;28;20040;-66
2021/09/03 06:52:31;;;;;;;7.82;2.40;;;;;;;20.95;40.15;101116.72;5036024;28;20110;-66
2021/09/03 06:54:58;;;;;;;9.60;2.53;;;;;;;21.17;42.20;101124.66;5035518;28;20499;-66
2021/09/03 06:57:24;;;;;;;11.98;3.33;;;;;;;21.25;41.60;101124.72;5053962;28;20036;-66
2021/09/03 06:59:50;;;;;;;5.88;2.47;;;;;;;21.39;39.11;101130.88;5053688;28;20394;-66
2021/09/03 07:02:16;;;;;;;5.07;2.40;;;;;;;21.49;40.32;101130.03;5033679;28;20106;-66
2021/09/03 07:04:42;;;;;;;4.88;2.30;;;;;;;21.48;39.65;101125.66;5054047;28;20056;-66
2021/09/03 07:07:08;;;;;;;6.85;2.15;;;;;;;21.51;36.39;101137.94;5053801;28;20033;-66
2021/09/03 07:09:33;;;;;;;5.65;2.50;;;;;;;21.47;35.93;101134.41;5053710;28;20104;-66
2021/09/03 07:11:59;;;;;;;3.28;2.10;;;;;;;21.42;37.02;101144.03;5053751;28;20526;-66
2021/09/03 07:14:24;;;;;;;3.90;2.17;;;;;;;21.31;35.88;101143.13;5053477;28;20546;-66
2021/09/03 07:16:50;;;;;;;4.43;2.10;;;;;;;21.21;36.08;101138.69;5053896;28;20442;-66
2021/09/03 07:19:16;;;;;;;6.55;2.40;;;;;;;21.12;36.97;101142.16;5053583;28;20106;-66
2021/09/03 07:21:42;;;;;;;4.63;2.40;;;;;;;21.01;37.44;101139.50;5051426;28;20426;-66
2021/09/03 07:24:08;;;;;;;5.78;2.10;;;;;;;21.14;37.24;101143.91;5053468;28;20021;-66
2021/09/03 07:26:33;;;;;;;7.95;1.88;;;;;;;21.07;37.86;101151.78;5053355;28;20029;-67
2021/09/03 07:28:59;;;;;;;4.20;2.00;;;;;;;20.83;38.75;101116.66;5053236;28;20473;-66
2021/09/03 07:31:25;;;;;;;6.22;2.30;;;;;;;21.01;38.11;101145.63;5053236;28;20025;-65
2021/09/03 07:33:50;;;;;;;3.40;2.00;;;;;;;21.00;38.61;101140.38;5053032;28;20036;-66
2021/09/03 07:36:16;;;;;;;6.30;2.30;;;;;;;21.05;38.51;101146.53;5053076;28;20021;-65
2021/09/03 07:38:42;;;;;;;6.35;2.15;;;;;;;21.10;37.87;101131.66;5051917;28;20021;-65
2021/09/03 07:41:07;;;;;;;4.05;1.88;;;;;;;21.28;37.44;101132.59;5052760;28;20024;-66
2021/09/03 07:43:33;;;;;;;4.72;2.40;;;;;;;21.47;38.51;101134.41;5052669;28;20096;-66
2021/09/03 07:45:58;;;;;;;5.35;2.15;;;;;;;21.70;37.62;101125.72;5052880;28;20029;-66
2021/09/03 07:48:24;;;;;;;4.80;2.17;;;;;;;21.77;36.46;101118.72;5053133;28;20530;-66
2021/09/03 07:50:50;;;;;;;4.20;2.10;;;;;;;21.93;36.02;101123.13;5053140;28;20541;-66
2021/09/03 07:53:15;;;;;;;3.80;1.73;;;;;;;21.84;34.86;101116.97;5053052;28;20044;-66
2021/09/03 07:55:41;;;;;;;3.25;1.60;;;;;;;21.71;35.11;101106.47;5053097;28;20055;-66
2021/09/03 07:58:07;;;;;;;3.55;1.85;;;;;;;21.88;35.75;101105.59;5052784;28;20061;-65
2021/09/03 08:00:34;;;;;;;5.82;2.30;;;;;;;22.16;34.81;101118.72;5052617;28;20388;-66
2021/09/03 08:03:00;;;;;;;4.82;2.25;;;;;;;22.10;34.90;101114.34;5052904;28;20021;-66
2021/09/03 08:05:25;;;;;;;4.25;2.08;;;;;;;22.06;34.63;101074.03;5052945;28;20470;-66
2021/09/03 08:07:51;;;;;;;5.13;1.85;;;;;;;22.29;33.44;101097.69;5033446;28;20064;-66
2021/09/03 08:10:17;;;;;;;5.45;2.15;;;;;;;22.40;34.90;101100.31;5052713;28;20041;-66
2021/09/03 08:12:44;;;;;;;4.45;1.75;;;;;;;22.39;34.57;101064.38;5052045;28;20104;-66
2021/09/03 08:15:10;;;;;;;3.40;1.85;;;;;;;22.80;34.50;101096.69;5052170;28;20056;-66
2021/09/03 08:17:36;;;;;;;3.08;1.90;;;;;;;22.96;33.92;101091.38;5052166;28;20539;-65
2021/09/03 08:20:07;;;;;;;4.18;2.05;;;;;;;22.73;34.28;101089.69;5050167;28;20136;-65
2021/09/03 08:22:33;;;;;;;6.55;2.42;;;;;;;22.87;35.47;101061.56;5052540;28;20113;-66
2021/09/03 08:24:59;;;;;;;2.58;1.83;;;;;;;23.00;33.58;101072.91;5052168;28;20033;-66
2021/09/03 08:27:24;;;;;;;4.80;2.15;;;;;;;22.71;33.71;101037.06;5052255;28;20079;-65
2021/09/03 08:29:50;;;;;;;5.90;2.22;;;;;;;22.81;33.95;101072.13;5051081;28;20521;-66
2021/09/03 08:32:16;;;;;;;2.90;1.58;;;;;;;22.39;34.29;101079.28;5052170;28;20116;-65
2021/09/03 08:34:42;;;;;;;6.05;2.20;;;;;;;22.34;33.75;101060.81;5051842;28;20021;-65
2021/09/03 08:37:09;;;;;;;3.95;1.95;;;;;;;22.57;33.43;101083.63;5051941;28;20040;-66
2021/09/03 08:39:35;;;;;;;2.78;1.73;;;;;;;22.12;33.96;101047.72;5051755;28;20403;-66
2021/09/03 08:42:01;;;;;;;4.20;2.45;;;;;;;22.55;34.72;101078.34;5052058;28;20482;-65
2021/09/03 08:44:31;;;;;;;4.20;1.85;;;;;;;22.93;33.33;101076.47;5051942;28;20021;-65
2021/09/03 08:46:56;;;;;;;5.40;2.10;;;;;;;22.86;34.17;101070.34;5052329;28;20033;-65
2021/09/03 08:49:23;;;;;;;3.22;1.95;;;;;;;22.96;34.08;101033.47;5051996;28;20032;-66
2021/09/03 08:51:49;;;;;;;3.65;2.00;;;;;;;23.06;32.40;101061.47;5052048;28;20041;-67
2021/09/03 08:54:14;;;;;;;4.18;2.15;;;;;;;;;;5051953;28;20028;-65
2021/09/03 08:56:40;;;;;;;3.20;2.05;;;;;;;23.21;35.08;101056.16;5051719;28;20029;-66
2021/09/03 08:59:05;;;;;;;3.60;2.03;;;;;;;23.32;32.76;101050.81;5051626;28;20021;-65
2021/09/03 09:01:31;;;;;;;5.93;2.28;;;;;;;23.35;32.64;101028.84;5051792;28;20031;-65
2021/09/03 09:04:07;;;;;;;3.78;2.03;;;;;;;23.53;32.09;101038.38;5051876;28;20094;-65
2021/09/03 09:06:32;;;;;;;3.90;1.92;;;;;;;23.51;31.81;101040.16;5051712;28;20029;-66
2021/09/03 09:09:06;;;;;;;3.60;1.80;;;;;;;23.69;31.85;101040.00;5051818;28;20053;-66
2021/09/03 09:11:34;;;;;;;4.72;2.10;;;;;;;23.71;31.98;101034.72;5051375;28;20018;-66
2021/09/03 09:14:12;;;;;;;4.57;2.30;;;;;;;24.10;31.45;101029.13;5051365;28;20388;-66
2021/09/03 09:16:38;;;;;;;4.72;2.17;;;;;;;24.23;31.68;101012.28;5051503;28;20029;-66
2021/09/03 09:19:07;;;;;;;3.38;2.20;;;;;;;24.39;32.32;101032.31;5051622;28;20048;-66
2021/09/03 09:21:42;;;;;;;3.50;2.20;;;;;;;24.69;32.33;101022.31;5051516;28;20500;-65
2021/09/03 09:24:13;;;;;;;3.30;2.10;;;;;;;24.82;32.67;101023.03;5051188;28;20471;-66
2021/09/03 09:26:55;;;;;;;6.65;2.20;;;;;;;24.87;31.28;101009.75;5051107;28;20037;-66
2021/09/03 09:29:50;;;;;;;8.32;2.22;;;;;;;24.84;30.94;101017.72;5051464;28;20029;-66
2021/09/03 09:32:15;;;;;;;4.30;2.03;;;;;;;25.03;31.07;101008.66;4989676;28;20034;-66
2021/09/03 09:34:43;;;;;;;6.82;2.38;;;;;;;25.02;30.74;101017.47;4989819;28;20034;-65
2021/09/03 09:37:13;;;;;;;5.60;2.20;;;;;;;25.33;30.41;101010.84;4989585;28;20074;-66
2021/09/03 09:39:56;;;;;;;3.80;2.00;;;;;;;25.52;30.48;101011.44;4989705;28;20026;-66
2021/09/03 09:42:24;;;;;;;5.57;2.20;;;;;;;25.54;29.28;101006.13;4989541;28;20081;-66
2021/09/03 09:45:08;;;;;;;3.15;1.98;;;;;;;25.53;29.40;100970.88;4989628;28;20034;-67
2021/09/03 09:47:36;;;;;;;4.68;2.20;;;;;;;25.88;30.73;100987.88;4989818;28;20077;-67
2021/09/03 09:50:32;;;;;;;4.30;1.92;;;;;;;25.67;29.88;100990.03;4962018;28;20117;-65
2021/09/03 09:53:08;;;;;;;3.58;1.90;;;;;;;25.24;29.61;100979.28;4970261;28;20026;-66
2021/09/03 09:55:35;;;;;;;3.97;2.20;;;;;;;25.14;29.53;100981.19;4970393;28;20039;-66
2021/09/03 09:58:01;;;;;;;3.58;2.20;;;;;;;25.24;28.97;100985.44;4954347;28;20043;-64
2021/09/03 10:00:27;;;;;;;5.10;1.92;;;;;;;25.10;29.58;100976.84;4968388;28;20121;-69
2021/09/03 10:02:53;;;;;;;5.50;2.00;;;;;;;24.97;29.75;100979.69;4969746;28;20087;-66
2021/09/03 10:05:20;;;;;;;5.00;2.20;;;;;;;25.01;29.62;100965.53;4968353;28;20457;-67
2021/09/03 10:07:46;;;;;;;3.42;2.30;;;;;;;25.06;29.49;100964.56;4980252;28;20056;-68
2021/09/03 10:10:13;;;;;;;3.65;2.22;;;;;;;25.33;29.53;100964.16;5047082;28;20029;-66
2021/09/03 10:12:39;;;;;;;3.55;2.00;;;;;;;25.34;29.54;100971.16;5033977;28;20061;-67
2021/09/03 10:15:05;;;;;;;4.07;2.03;;;;;;;25.52;29.28;100967.38;5034344;28;20497;-67
2021/09/03 10:17:32;;;;;;;4.72;2.13;;;;;;;25.87;29.15;100961.47;4996531;28;20038;-68
2021/09/03 10:19:59;;;;;;;4.05;2.38;;;;;;;26.04;29.53;100969.09;5031691;28;20507;-67
2021/09/03 10:22:24;;;;;;;3.13;2.30;;;;;;;26.42;29.50;100952.47;5041873;28;20040;-67
2021/09/03 10:25:08;;;;;;;5.03;2.42;;;;;;;26.17;28.89;100952.13;5037297;28;20018;-68
2021/09/03 10:27:33;;;;;;;10.70;3.10;;;;;;;26.47;28.28;100955.88;5034282;28;20038;-67
2021/09/03 10:30:13;;;;;;;9.55;3.03;;;;;;;26.78;28.23;100944.63;5030016;28;20029;-68
2021/09/03 10:32:40;;;;;;;4.00;2.30;;;;;;;26.93;27.29;100938.13;5029900;28;20064;-67
2021/09/03 10:35:18;;;;;;;5.28;2.10;;;;;;;27.11;27.54;100934.13;5035084;28;20125;-66
2021/09/03 10:37:44;;;;;;;4.28;2.30;;;;;;;27.30;26.16;100936.31;5032703;28;20029;-66
2021/09/03 10:40:20;;;;;;;4.22;2.13;;;;;;;27.13;26.45;100924.38;5032410;28;20040;-66
2021/09/03 10:42:48;;;;;;;3.78;2.40;;;;;;;26.78;26.81;100914.63;5033018;28;20473;-68
2021/09/03 10:45:25;;;;;;;3.95;2.30;;;;;;;27.23;26.43;100924.16;5040634;28;20017;-67
2021/09/03 10:47:59;;;;;;;4.03;2.15;;;;;;;27.43;29.01;100921.03;5053905;28;20029;-65
2021/09/03 10:50:34;;;;;;;5.97;2.50;;;;;;;27.68;26.08;100923.03;5053867;28;20029;-64
2021/09/03 10:53:10;;;;;;;6.65;2.53;;;;;;;27.58;26.15;100920.59;5053686;28;20394;-64
2021/09/03 10:55:52;;;;;;;8.35;2.65;;;;;;;27.73;26.69;100915.81;5034936;28;20463;-66
2021/09/03 10:58:36;;;;;;;5.57;2.35;;;;;;;27.94;26.02;100911.69;5036639;28;20426;-66
2021/09/03 11:01:14;;;;;;;5.35;2.63;;;;;;;28.12;26.28;100902.34;5040947;28;20025;-68
2021/09/03 11:14:34;;;;;;;4.15;2.28;;;;;;;27.84;26.25;100900.47;5021608;28;20099;-64
2021/09/03 11:17:05;;;;;;;3.97;2.25;;;;;;;27.24;26.92;100902.03;5024475;28;20181;-65
2021/09/03 11:20:27;;;;;;;3.53;2.20;;;;;;;27.42;26.65;100901.56;5015526;28;20041;-66
2021/09/03 11:23:06;;;;;;;7.07;2.38;;;;;;;27.53;26.47;100908.41;4963338;28;20049;-63
2021/09/03 11:25:35;;;;;;;4.38;2.28;;;;;;;27.87;26.61;100903.00;4990188;28;20045;-70
2021/09/03 11:28:01;;;;;;;5.25;2.63;;;;;;;28.19;27.29;100895.94;4975193;28;20132;-65
2021/09/03 11:30:47;;;;;;;4.57;2.58;;;;;;;28.33;25.67;100887.53;4937020;29;20058;-66
2021/09/03 11:33:18;;;;;;;6.47;2.10;;;;;;;28.67;25.44;100897.13;4955041;28;20092;-67
2021/09/03 11:36:00;;;;;;;5.07;2.60;;;;;;;28.82;26.45;100885.16;4970915;28;20039;-64